Time;durP1;ratioP1;P1;durP2;ratioP2;P2;SDS_P1;SDS_P2;PMS_P1;PMS_P2;Temp;Humidity;BMP_temperature;BMP_pressure;BME280_temperature;BME280_humidity;BME280_pressure;Samples;Min_cycle;Max_cycle;Signal;HPM_P1;HPM_P2
2022/03/21 00:01:18;;;;;;;2.60;1.90;;;22.20;41.10;;;;;;5001974;28;20034;-65
2022/03/21 00:03:44;;;;;;;4.22;1.95;;;22.20;41.20;;;;;;4998490;28;20022;-62
2022/03/21 00:06:10;;;;;;;3.67;1.98;;;22.20;41.20;;;;;;5000404;28;20037;-63
2022/03/21 00:08:36;;;;;;;2.75;1.85;;;22.20;41.20;;;;;;5001637;28;20116;-67
2022/03/21 00:11:01;;;;;;;2.42;1.73;;;22.10;41.10;;;;;;5002669;28;20030;-65
2022/03/21 00:13:27;;;;;;;2.97;1.83;;;22.20;41.10;;;;;;5003102;28;20029;-67
2022/03/21 00:15:54;;;;;;;2.80;1.80;;;22.10;41.10;;;;;;5003374;28;20025;-67
2022/03/21 00:18:20;;;;;;;2.60;1.92;;;22.10;41.10;;;;;;5016401;28;20057;-65
2022/03/21 00:20:49;;;;;;;2.83;1.95;;;22.10;41.10;;;;;;5002738;28;20022;-65
2022/03/21 00:23:15;;;;;;;2.67;1.80;;;22.10;41.60;;;;;;5002062;28;20565;-67
2022/03/21 00:25:41;;;;;;;2.45;1.80;;;22.10;41.10;;;;;;4999970;28;20054;-62
2022/03/21 00:28:08;;;;;;;2.67;1.80;;;22.10;41.20;;;;;;4999262;28;20089;-67
2022/03/21 00:30:36;;;;;;;2.92;1.77;;;22.10;41.10;;;;;;5000172;28;20039;-67
2022/03/21 00:33:01;;;;;;;2.60;1.70;;;22.10;41.10;;;;;;5001310;28;20125;-65
2022/03/21 00:35:28;;;;;;;2.40;1.85;;;22.10;41.10;;;;;;5005992;28;20148;-63
2022/03/21 00:37:54;;;;;;;2.95;1.80;;;22.00;41.10;;;;;;5001134;28;20034;-65
2022/03/21 00:40:20;;;;;;;2.65;1.80;;;22.00;41.10;;;;;;4992908;28;20065;-66
2022/03/21 00:42:48;;;;;;;2.88;1.70;;;22.00;41.60;;;;;;5001224;28;20057;-64
2022/03/21 00:45:19;;;;;;;3.20;1.95;;;22.00;41.10;;;;;;5018613;28;20048;-67
2022/03/21 00:47:46;;;;;;;3.17;2.00;;;22.00;41.10;;;;;;5000548;28;20033;-65
2022/03/21 00:50:15;;;;;;;2.38;1.77;;;22.00;41.10;;;;;;4998914;28;20071;-66
2022/03/21 00:52:41;;;;;;;2.83;2.05;;;22.00;41.60;;;;;;5001008;28;20037;-65
2022/03/21 00:55:09;;;;;;;2.70;1.80;;;22.00;41.20;;;;;;5002545;28;20167;-67
2022/03/21 00:57:35;;;;;;;2.33;1.80;;;22.00;41.10;;;;;;5000194;28;20343;-67
2022/03/21 01:00:04;;;;;;;2.90;1.80;;;22.00;41.10;;;;;;5001973;28;20370;-62
2022/03/21 01:02:30;;;;;;;3.50;2.17;;;22.00;41.10;;;;;;5001556;28;20448;-67
2022/03/21 01:04:55;;;;;;;2.45;1.80;;;22.00;41.10;;;;;;5003338;28;20064;-65
2022/03/21 01:07:21;;;;;;;2.92;1.90;;;21.90;41.10;;;;;;5002931;28;20040;-67
2022/03/21 01:09:47;;;;;;;2.25;1.60;;;21.90;41.10;;;;;;4999583;28;20029;-67
2022/03/21 01:12:12;;;;;;;3.47;1.95;;;21.90;41.10;;;;;;5000746;28;20028;-67
2022/03/21 01:14:38;;;;;;;2.90;1.80;;;21.90;41.10;;;;;;5001709;28;20183;-66
2022/03/21 01:17:03;;;;;;;2.55;1.80;;;21.90;41.10;;;;;;5006433;28;20022;-67
2022/03/21 01:19:30;;;;;;;2.63;1.88;;;21.90;41.10;;;;;;5004498;28;20030;-62
2022/03/21 01:21:57;;;;;;;2.10;1.60;;;21.90;41.20;;;;;;5003832;28;20045;-62
2022/03/21 01:24:23;;;;;;;2.30;1.50;;;21.90;41.20;;;;;;5000468;28;20033;-62
2022/03/21 01:26:48;;;;;;;2.33;1.67;;;21.90;41.20;;;;;;4998822;28;20309;-67
2022/03/21 01:29:14;;;;;;;2.58;1.80;;;21.80;41.10;;;;;;5017410;28;20110;-65
2022/03/21 01:31:39;;;;;;;2.58;1.70;;;21.80;41.10;;;;;;5000215;28;20034;-67
2022/03/21 01:34:05;;;;;;;2.50;1.70;;;21.80;41.20;;;;;;5003952;28;20113;-62
2022/03/21 01:36:30;;;;;;;2.50;1.85;;;21.80;41.10;;;;;;5004166;28;20377;-65
2022/03/21 01:38:56;;;;;;;2.35;1.80;;;21.80;41.10;;;;;;5000399;28;20034;-67
2022/03/21 01:41:21;;;;;;;2.65;1.70;;;21.80;41.10;;;;;;5000059;28;20075;-67
2022/03/21 01:44:05;;;;;;;2.90;2.00;;;21.80;41.10;;;;;;5003138;28;20036;-63
2022/03/21 01:46:31;;;;;;;3.72;1.73;;;21.80;41.10;;;;;;5001473;28;20030;-64
2022/03/21 01:48:58;;;;;;;2.60;1.67;;;21.80;41.20;;;;;;5016239;28;20099;-63
2022/03/21 01:51:25;;;;;;;2.30;1.65;;;21.70;41.10;;;;;;4999707;28;20049;-67
2022/03/21 01:56:41;;;;;;;2.33;1.67;;;21.70;41.20;;;;;;5002617;28;20454;-62
2022/03/21 01:59:11;;;;;;;2.40;1.75;;;21.70;41.20;;;;;;5000898;28;20967;-62
2022/03/21 02:01:37;;;;;;;2.55;1.80;;;21.70;41.10;;;;;;5001127;28;20107;-66
2022/03/21 02:04:04;;;;;;;2.53;1.70;;;21.70;41.20;;;;;;4999702;28;20026;-62
2022/03/21 02:06:30;;;;;;;2.20;1.50;;;21.70;41.20;;;;;;5003730;28;20143;-65
2022/03/21 02:09:00;;;;;;;2.47;1.60;;;21.60;41.10;;;;;;5001202;28;20073;-67
2022/03/21 02:11:26;;;;;;;2.67;1.63;;;21.70;41.20;;;;;;5005427;28;20045;-65
2022/03/21 02:13:56;;;;;;;2.40;1.73;;;21.60;41.10;;;;;;5005244;28;20040;-65
2022/03/21 02:16:26;;;;;;;2.53;1.60;;;21.60;41.10;;;;;;5006999;28;20022;-65
2022/03/21 02:18:53;;;;;;;2.65;1.88;;;21.60;41.10;;;;;;5004398;28;20117;-66
2022/03/21 02:21:36;;;;;;;2.42;1.55;;;21.60;41.10;;;;;;5008013;28;20032;-67
2022/03/21 02:24:29;;;;;;;2.33;1.58;;;21.60;41.20;;;;;;5004305;28;20468;-65
2022/03/21 02:26:58;;;;;;;2.17;1.70;;;21.60;41.20;;;;;;5003973;28;20410;-67
2022/03/21 02:29:26;;;;;;;2.17;1.65;;;21.60;41.20;;;;;;5006246;28;20033;-66
2022/03/21 02:31:55;;;;;;;2.20;1.60;;;21.60;41.20;;;;;;5003408;28;20493;-67
2022/03/21 02:34:24;;;;;;;2.63;1.67;;;21.60;41.20;;;;;;5006599;28;20121;-65
2022/03/21 02:37:00;;;;;;;2.05;1.48;;;21.60;41.20;;;;;;5006510;28;20363;-65
2022/03/21 02:39:27;;;;;;;2.67;1.90;;;21.50;41.10;;;;;;5006200;28;20133;-65
2022/03/21 02:41:53;;;;;;;2.30;1.60;;;21.50;41.10;;;;;;5002288;28;20076;-65
2022/03/21 02:44:19;;;;;;;2.72;1.75;;;21.50;41.10;;;;;;5005267;28;20034;-65
2022/03/21 02:46:45;;;;;;;2.10;1.40;;;21.50;41.10;;;;;;5005569;28;20099;-64
2022/03/21 02:49:13;;;;;;;2.78;1.88;;;21.50;41.20;;;;;;5003968;28;20122;-67
2022/03/21 02:51:40;;;;;;;2.72;1.90;;;21.50;41.20;;;;;;5006278;28;20030;-65
2022/03/21 02:54:06;;;;;;;2.15;1.50;;;21.50;41.20;;;;;;5002430;28;20037;-67
2022/03/21 02:56:32;;;;;;;2.70;1.88;;;21.50;41.20;;;;;;5004808;28;20377;-65
2022/03/21 02:58:58;;;;;;;2.33;1.67;;;21.50;41.20;;;;;;5004247;28;20056;-67
2022/03/21 03:01:24;;;;;;;2.50;1.70;;;21.50;41.20;;;;;;5005085;28;20311;-65
2022/03/21 03:03:49;;;;;;;2.88;1.75;;;21.50;41.20;;;;;;5003219;28;20498;-67
2022/03/21 03:06:15;;;;;;;2.40;1.65;;;21.50;41.20;;;;;;5006546;28;20041;-67
2022/03/21 03:08:43;;;;;;;2.20;1.50;;;21.50;41.20;;;;;;5004108;28;20038;-67
2022/03/21 03:11:09;;;;;;;2.53;1.70;;;21.40;41.20;;;;;;5003834;28;20355;-67
2022/03/21 03:13:34;;;;;;;2.13;1.65;;;21.40;41.10;;;;;;5002329;28;20030;-62
2022/03/21 03:16:00;;;;;;;2.33;1.80;;;21.40;41.20;;;;;;5006693;28;20091;-63
2022/03/21 03:18:26;;;;;;;2.70;1.70;;;21.40;41.10;;;;;;5003205;28;20038;-66
2022/03/21 03:20:54;;;;;;;2.05;1.40;;;21.40;41.10;;;;;;5004840;28;20113;-62
2022/03/21 03:23:22;;;;;;;1.95;1.48;;;21.40;41.20;;;;;;4999198;28;20050;-63
2022/03/21 03:25:54;;;;;;;2.40;1.70;;;21.40;41.20;;;;;;5003402;28;20031;-62
2022/03/21 03:28:20;;;;;;;3.05;1.63;;;21.40;41.20;;;;;;5002066;28;20033;-67
2022/03/21 03:30:46;;;;;;;2.17;1.60;;;21.40;41.20;;;;;;5004817;28;20371;-63
2022/03/21 03:33:11;;;;;;;2.13;1.60;;;21.30;41.10;;;;;;5000828;28;20099;-66
2022/03/21 03:35:37;;;;;;;2.25;1.70;;;21.30;41.10;;;;;;5003981;28;20104;-67
2022/03/21 03:38:03;;;;;;;2.40;1.70;;;21.30;41.20;;;;;;5003930;28;20033;-62
2022/03/21 03:40:29;;;;;;;2.10;1.50;;;21.30;41.20;;;;;;5002759;28;20057;-66
2022/03/21 03:42:55;;;;;;;2.60;1.63;;;21.30;41.20;;;;;;5003692;28;20041;-66
2022/03/21 03:45:21;;;;;;;2.42;1.48;;;21.30;41.20;;;;;;5003965;28;20041;-65
2022/03/21 03:47:46;;;;;;;2.58;1.88;;;21.30;41.30;;;;;;5005506;28;20037;-66
2022/03/21 03:50:12;;;;;;;2.70;1.90;;;21.30;41.20;;;;;;5003289;28;20434;-66
2022/03/21 03:52:40;;;;;;;2.08;1.52;;;21.30;41.20;;;;;;5004723;28;20065;-64
2022/03/21 03:55:06;;;;;;;2.40;1.70;;;21.30;41.20;;;;;;4999414;28;20049;-64
2022/03/21 03:57:33;;;;;;;2.50;1.70;;;21.30;41.30;;;;;;5003230;28;20478;-64
2022/03/21 03:59:59;;;;;;;2.03;1.50;;;21.30;41.20;;;;;;4999776;28;20163;-63
2022/03/21 04:02:24;;;;;;;2.40;1.67;;;21.30;41.30;;;;;;5001985;28;20034;-61
2022/03/21 04:04:50;;;;;;;2.35;1.70;;;21.30;41.30;;;;;;5003108;28;20022;-66
2022/03/21 04:07:15;;;;;;;3.35;1.90;;;21.20;41.20;;;;;;5005079;28;20119;-64
2022/03/21 04:09:41;;;;;;;2.25;1.67;;;21.20;41.20;;;;;;5003742;28;20521;-66
2022/03/21 04:12:07;;;;;;;2.78;1.77;;;21.20;41.20;;;;;;5003179;28;20034;-66
2022/03/21 04:14:33;;;;;;;2.63;1.60;;;21.20;41.30;;;;;;5003110;28;20121;-62
2022/03/21 04:16:58;;;;;;;2.33;1.70;;;21.20;41.20;;;;;;5002867;28;20192;-66
2022/03/21 04:19:24;;;;;;;2.63;1.70;;;21.20;41.30;;;;;;5004245;28;20075;-64
2022/03/21 04:21:50;;;;;;;2.38;1.70;;;21.20;41.30;;;;;;5003810;28;20026;-66
2022/03/21 04:24:16;;;;;;;2.22;1.65;;;21.20;41.30;;;;;;4999932;28;20038;-64
2022/03/21 04:26:41;;;;;;;2.60;1.70;;;21.20;41.30;;;;;;5004246;28;20034;-66
2022/03/21 04:29:07;;;;;;;2.17;1.65;;;21.20;41.30;;;;;;5000742;28;20034;-66
2022/03/21 04:31:35;;;;;;;2.10;1.50;;;21.20;41.70;;;;;;5002515;28;20204;-64
2022/03/21 04:34:01;;;;;;;2.30;1.50;;;21.20;41.30;;;;;;4995717;28;20038;-62
2022/03/21 04:36:29;;;;;;;2.60;1.52;;;21.20;41.30;;;;;;4998420;28;20031;-66
2022/03/21 04:38:55;;;;;;;2.15;1.58;;;21.20;41.30;;;;;;4996445;28;20040;-65
2022/03/21 04:41:20;;;;;;;2.38;1.70;;;21.10;41.20;;;;;;5001952;28;20161;-66
2022/03/21 04:43:46;;;;;;;2.25;1.60;;;21.20;41.30;;;;;;5001302;28;20024;-64
2022/03/21 04:46:12;;;;;;;2.60;1.70;;;21.20;41.30;;;;;;5002787;28;20398;-64
2022/03/21 04:48:37;;;;;;;2.85;1.67;;;21.20;41.30;;;;;;4998646;28;20026;-66
2022/03/21 04:51:03;;;;;;;2.45;1.70;;;21.20;41.30;;;;;;5003020;28;20054;-64
2022/03/21 04:53:29;;;;;;;2.40;1.80;;;21.10;41.20;;;;;;5001799;28;20149;-64
2022/03/21 04:55:54;;;;;;;2.80;1.60;;;21.20;41.30;;;;;;5006392;28;20030;-66
2022/03/21 04:58:20;;;;;;;2.20;1.50;;;21.10;41.20;;;;;;5000895;28;20029;-63
2022/03/21 05:00:45;;;;;;;2.50;1.80;;;21.20;41.30;;;;;;4999963;28;20133;-66
2022/03/21 05:03:11;;;;;;;2.35;1.70;;;21.10;41.20;;;;;;4994847;28;20030;-66
2022/03/21 05:05:37;;;;;;;2.15;1.60;;;21.10;41.20;;;;;;5000541;28;20325;-64
2022/03/21 05:08:04;;;;;;;2.53;1.73;;;21.10;41.20;;;;;;5002149;28;20224;-66
2022/03/21 05:10:31;;;;;;;2.17;1.60;;;21.10;41.20;;;;;;5001710;28;20569;-66
2022/03/21 05:12:57;;;;;;;2.72;1.70;;;21.10;41.20;;;;;;5002820;28;20425;-66
2022/03/21 05:15:26;;;;;;;2.60;1.60;;;21.10;41.20;;;;;;5000557;28;20133;-66
2022/03/21 05:17:52;;;;;;;2.80;1.73;;;21.10;41.20;;;;;;5003546;28;20072;-62
2022/03/21 05:20:18;;;;;;;2.72;1.77;;;21.10;41.20;;;;;;5000994;28;20080;-66
2022/03/21 05:30:57;;;;;;;2.55;1.77;;;21.10;41.20;;;;;;5000472;28;20030;-66
2022/03/21 05:31:06;;;;;;;2.22;1.40;;;21.10;41.20;;;;;;5002019;28;20176;-63
2022/03/21 05:36:18;;;;;;;2.38;1.50;;;21.10;41.20;;;;;;5001547;28;20048;-62
2022/03/21 05:38:44;;;;;;;2.35;1.60;;;21.10;41.20;;;;;;4999659;28;20249;-67
2022/03/21 05:41:11;;;;;;;2.03;1.50;;;21.10;41.20;;;;;;5001589;28;20100;-64
2022/03/21 05:43:36;;;;;;;2.08;1.50;;;21.10;41.20;;;;;;5001667;28;20394;-64
2022/03/21 05:46:03;;;;;;;1.98;1.50;;;21.00;41.70;;;;;;5005185;28;20071;-64
2022/03/21 05:51:28;;;;;;;2.17;1.35;;;21.10;41.20;;;;;;5007418;28;20077;-62
2022/03/21 05:53:58;;;;;;;2.50;1.75;;;21.10;41.20;;;;;;5002096;28;20390;-66
2022/03/21 05:56:25;;;;;;;2.33;1.60;;;21.10;41.20;;;;;;5003184;28;20083;-62
2022/03/21 05:58:55;;;;;;;2.60;1.70;;;21.10;41.20;;;;;;5000798;28;20180;-64
2022/03/21 06:01:22;;;;;;;2.30;1.50;;;21.00;41.20;;;;;;5004994;28;20050;-67
2022/03/21 06:03:52;;;;;;;2.95;1.60;;;21.00;41.20;;;;;;5006621;28;20109;-66
2022/03/21 06:06:19;;;;;;;2.13;1.50;;;21.00;41.20;;;;;;5002425;28;20034;-66
2022/03/21 06:08:45;;;;;;;2.35;1.65;;;21.00;41.20;;;;;;5002513;28;20030;-64
2022/03/21 06:11:12;;;;;;;2.40;1.50;;;21.00;41.20;;;;;;5000548;28;20052;-64
2022/03/21 06:13:49;;;;;;;2.38;1.55;;;21.00;41.20;;;;;;4995195;28;20449;-64
2022/03/21 06:16:15;;;;;;;2.10;1.50;;;21.00;41.20;;;;;;5008433;28;20041;-64
2022/03/21 06:18:40;;;;;;;2.13;1.42;;;21.00;41.20;;;;;;5000092;28;20371;-67
2022/03/21 06:21:09;;;;;;;2.45;1.58;;;21.00;41.20;;;;;;5006174;28;20491;-66
2022/03/21 06:23:35;;;;;;;2.67;1.65;;;21.00;41.20;;;;;;5005069;28;20430;-62
2022/03/21 06:26:01;;;;;;;2.40;1.58;;;21.00;41.20;;;;;;5002663;28;20044;-61
2022/03/21 06:28:28;;;;;;;2.72;1.83;;;21.00;41.50;;;;;;5005492;28;20037;-64
2022/03/21 06:30:54;;;;;;;2.63;1.70;;;21.10;41.70;;;;;;5010119;28;20132;-65
2022/03/21 06:33:22;;;;;;;3.53;2.13;;;21.10;41.60;;;;;;5017984;28;20061;-66
2022/03/21 06:35:48;;;;;;;3.17;2.15;;;21.20;41.60;;;;;;5016410;28;20426;-61
2022/03/21 06:38:14;;;;;;;2.95;2.20;;;21.30;41.50;;;;;;5018721;28;20056;-65
2022/03/21 06:40:42;;;;;;;3.40;2.47;;;21.40;41.40;;;;;;5015419;28;20037;-62
2022/03/21 06:43:08;;;;;;;3.55;2.40;;;21.50;41.30;;;;;;5014314;28;20034;-66
2022/03/21 06:45:33;;;;;;;4.35;2.67;;;21.60;41.10;;;;;;5013877;28;20026;-66
2022/03/21 06:47:59;;;;;;;4.53;2.60;;;21.70;41.00;;;;;;5019151;28;20172;-64
2022/03/21 06:50:25;;;;;;;4.57;2.63;;;21.80;40.90;;;;;;5012957;28;20100;-61
2022/03/21 06:52:52;;;;;;;3.10;2.20;;;21.90;40.70;;;;;;5014498;28;20087;-66
2022/03/21 06:55:20;;;;;;;4.13;2.40;;;22.10;40.60;;;;;;5015921;28;20073;-62
2022/03/21 06:57:45;;;;;;;3.88;2.28;;;22.10;40.50;;;;;;5012696;28;20116;-66
2022/03/21 07:00:13;;;;;;;3.42;2.35;;;22.20;40.30;;;;;;5002063;28;20040;-67
2022/03/21 07:02:40;;;;;;;2.95;1.88;;;22.30;40.30;;;;;;5006044;28;20292;-64
2022/03/21 07:05:07;;;;;;;3.70;2.10;;;22.40;40.20;;;;;;5003446;28;20409;-68
2022/03/21 07:07:33;;;;;;;3.38;2.42;;;22.40;40.10;;;;;;5012197;28;20046;-66
2022/03/21 07:10:00;;;;;;;2.90;1.92;;;22.40;40.10;;;;;;5011870;28;20050;-66
2022/03/21 07:12:26;;;;;;;3.67;2.25;;;22.40;40.10;;;;;;5007963;28;20030;-66
2022/03/21 07:14:51;;;;;;;3.38;2.13;;;22.40;40.10;;;;;;5018769;28;20104;-65
2022/03/21 07:17:19;;;;;;;3.65;2.28;;;22.30;40.10;;;;;;5017265;28;20034;-67
2022/03/21 07:19:44;;;;;;;2.70;1.70;;;22.40;40.10;;;;;;5009287;28;20026;-66
2022/03/21 07:22:10;;;;;;;3.00;1.80;;;22.40;40.30;;;;;;5005317;28;20030;-67
2022/03/21 07:24:35;;;;;;;3.15;2.05;;;22.40;40.20;;;;;;5004484;28;20033;-67
2022/03/21 07:27:01;;;;;;;3.63;2.30;;;22.40;40.30;;;;;;5003346;28;20021;-66
2022/03/21 07:29:26;;;;;;;3.35;2.17;;;22.40;40.40;;;;;;5003304;28;20034;-62
2022/03/21 07:31:52;;;;;;;4.28;2.00;;;22.40;40.40;;;;;;5006313;28;20045;-64
2022/03/21 07:34:17;;;;;;;2.90;1.80;;;22.50;40.40;;;;;;5009892;28;20194;-65
2022/03/21 07:36:43;;;;;;;3.42;1.92;;;22.40;40.40;;;;;;5006716;28;20041;-64
2022/03/21 07:39:09;;;;;;;2.78;1.50;;;22.40;40.40;;;;;;5002331;28;20533;-62
2022/03/21 07:41:35;;;;;;;3.13;2.17;;;22.50;40.50;;;;;;5003952;28;20022;-65
2022/03/21 07:44:01;;;;;;;2.83;1.70;;;22.50;40.50;;;;;;5004414;28;20057;-64
2022/03/21 07:49:25;;;;;;;3.13;1.93;;;22.50;40.50;;;;;;4982489;28;20038;-67
2022/03/21 07:51:51;;;;;;;2.75;1.95;;;22.50;40.60;;;;;;5004147;28;20029;-67
2022/03/21 07:54:16;;;;;;;2.63;1.80;;;22.50;40.50;;;;;;5004281;28;20040;-65
2022/03/21 07:56:42;;;;;;;2.25;1.67;;;22.60;40.50;;;;;;5004279;28;20101;-62
2022/03/21 07:59:07;;;;;;;4.07;2.13;;;22.60;40.60;;;;;;4999296;28;20037;-66
2022/03/21 08:01:34;;;;;;;2.45;1.65;;;22.60;40.60;;;;;;5000706;28;20647;-66
2022/03/21 08:04:03;;;;;;;2.60;1.70;;;22.60;40.60;;;;;;5004971;28;20018;-64
2022/03/21 08:06:29;;;;;;;3.60;1.90;;;22.60;40.80;;;;;;5001219;28;20628;-63
2022/03/21 08:08:55;;;;;;;3.28;1.90;;;22.60;40.60;;;;;;5000451;28;20037;-67
2022/03/21 08:11:24;;;;;;;3.65;2.10;;;22.70;40.60;;;;;;5015386;28;20040;-66
2022/03/21 08:13:49;;;;;;;2.72;2.00;;;22.70;40.50;;;;;;5000495;28;20037;-62
2022/03/21 08:16:20;;;;;;;3.45;2.08;;;22.70;40.30;;;;;;5002008;28;20441;-66
2022/03/21 08:18:50;;;;;;;3.45;2.10;;;22.70;40.30;;;;;;5002900;28;20391;-67
2022/03/21 08:21:16;;;;;;;2.78;2.00;;;22.70;40.40;;;;;;4999220;28;20131;-66
2022/03/21 08:23:42;;;;;;;3.15;2.22;;;22.80;40.30;;;;;;4998057;28;20033;-66
2022/03/21 08:26:10;;;;;;;4.63;1.88;;;22.70;40.20;;;;;;5001142;28;20124;-66
2022/03/21 08:28:36;;;;;;;3.03;1.90;;;22.80;40.40;;;;;;5003035;28;20125;-62
2022/03/21 08:31:02;;;;;;;3.75;2.00;;;22.80;40.30;;;;;;4998552;28;20124;-64
2022/03/21 08:33:27;;;;;;;3.00;1.98;;;22.80;40.40;;;;;;5002566;28;20577;-62
2022/03/21 08:35:54;;;;;;;3.20;1.90;;;22.80;40.30;;;;;;5000924;28;20350;-66
2022/03/21 08:38:20;;;;;;;3.08;1.80;;;22.90;40.40;;;;;;5003347;28;20025;-60
2022/03/21 08:40:45;;;;;;;3.60;2.05;;;22.90;40.40;;;;;;5001474;28;20033;-61
2022/03/21 08:43:11;;;;;;;3.20;2.33;;;22.80;40.30;;;;;;5001294;28;20116;-64
2022/03/21 08:45:36;;;;;;;3.65;2.10;;;22.90;40.30;;;;;;4997254;28;20494;-65
2022/03/21 08:48:03;;;;;;;2.95;1.80;;;22.90;40.40;;;;;;5001297;28;20060;-67
2022/03/21 08:50:29;;;;;;;2.75;1.90;;;22.90;40.40;;;;;;5000766;28;20029;-66
2022/03/21 08:52:58;;;;;;;3.10;2.00;;;22.90;40.40;;;;;;5001755;28;20033;-65
2022/03/21 08:55:24;;;;;;;3.30;2.00;;;22.90;40.30;;;;;;5000918;28;20021;-67
2022/03/21 08:57:50;;;;;;;3.20;2.00;;;22.90;40.20;;;;;;5001720;28;20022;-67
2022/03/21 09:00:16;;;;;;;2.80;2.00;;;22.90;40.10;;;;;;4999483;28;20466;-63
2022/03/21 09:02:42;;;;;;;2.95;1.90;;;22.90;40.10;;;;;;5000333;28;20030;-67
2022/03/21 09:05:12;;;;;;;3.15;2.00;;;22.90;40.00;;;;;;4999280;28;20068;-64
2022/03/21 09:07:39;;;;;;;3.47;2.10;;;22.90;39.80;;;;;;4999608;28;20129;-67
2022/03/21 09:10:05;;;;;;;3.15;1.92;;;22.90;39.80;;;;;;4996753;28;20033;-66
2022/03/21 09:12:32;;;;;;;3.00;2.05;;;22.90;39.90;;;;;;5000001;28;20656;-63
2022/03/21 09:14:57;;;;;;;2.75;1.92;;;22.90;39.90;;;;;;5001707;28;20030;-65
2022/03/21 09:17:24;;;;;;;4.10;2.13;;;23.00;40.00;;;;;;5001099;28;20324;-65
2022/03/21 09:19:50;;;;;;;3.22;2.08;;;23.00;39.90;;;;;;4999268;28;20473;-68
2022/03/21 09:22:16;;;;;;;3.70;1.80;;;23.00;39.90;;;;;;5002609;28;20072;-68
2022/03/21 09:24:41;;;;;;;2.90;2.10;;;23.00;39.90;;;;;;5001359;28;20046;-68
2022/03/21 09:27:07;;;;;;;3.00;1.90;;;23.10;39.90;;;;;;5001955;28;20088;-67
2022/03/21 09:29:33;;;;;;;3.10;2.15;;;23.10;39.90;;;;;;4999478;28;20025;-66
2022/03/21 09:31:58;;;;;;;2.75;1.90;;;23.10;39.90;;;;;;5000935;28;20509;-66
2022/03/21 09:34:24;;;;;;;3.58;2.10;;;23.10;39.90;;;;;;5017634;28;20396;-66
2022/03/21 09:36:50;;;;;;;2.80;1.80;;;23.10;39.90;;;;;;4990660;28;20034;-66
2022/03/21 09:39:17;;;;;;;3.30;1.88;;;23.10;39.90;;;;;;4995841;28;20328;-68
2022/03/21 09:41:44;;;;;;;3.22;1.88;;;23.10;39.90;;;;;;5001261;28;20380;-66
2022/03/21 09:44:10;;;;;;;3.42;2.05;;;23.10;39.90;;;;;;5002269;28;20034;-69
2022/03/21 09:46:41;;;;;;;2.53;1.80;;;23.10;39.90;;;;;;4999472;28;20045;-67
2022/03/21 09:49:09;;;;;;;3.20;2.13;;;23.10;39.80;;;;;;4999969;28;20134;-63
2022/03/21 09:51:35;;;;;;;3.17;2.10;;;23.20;39.90;;;;;;5001758;28;20161;-68
2022/03/21 09:54:02;;;;;;;2.85;2.00;;;23.20;39.90;;;;;;4997208;28;20362;-65
2022/03/21 09:56:28;;;;;;;3.70;2.33;;;23.20;39.80;;;;;;5000580;28;20405;-66
2022/03/21 09:58:59;;;;;;;2.70;1.80;;;23.20;39.80;;;;;;5000036;28;20030;-65
2022/03/21 10:01:32;;;;;;;3.10;1.80;;;23.20;39.90;;;;;;5001633;28;20041;-63
2022/03/21 10:03:59;;;;;;;3.35;2.05;;;23.20;39.90;;;;;;4997447;28;20033;-66
2022/03/21 10:06:45;;;;;;;2.55;1.80;;;23.20;39.80;;;;;;5001264;28;20474;-68
2022/03/21 10:09:19;;;;;;;2.55;1.88;;;23.20;39.80;;;;;;4997803;28;20037;-67
2022/03/21 10:11:51;;;;;;;2.80;2.00;;;23.20;39.90;;;;;;4997637;28;20022;-67
2022/03/21 10:14:32;;;;;;;2.95;1.75;;;23.20;39.80;;;;;;5000368;28;20029;-68
2022/03/21 10:17:06;;;;;;;2.60;1.75;;;23.20;39.80;;;;;;5002409;28;20018;-62
2022/03/21 10:20:01;;;;;;;2.53;1.85;;;23.30;39.90;;;;;;5016364;28;20058;-63
2022/03/21 10:22:33;;;;;;;3.58;1.92;;;23.20;39.80;;;;;;4980293;28;20041;-66
2022/03/21 10:25:04;;;;;;;3.00;2.00;;;23.20;39.80;;;;;;4998223;28;20467;-62
2022/03/21 10:27:36;;;;;;;3.10;2.00;;;23.30;39.90;;;;;;4997661;28;20335;-65
2022/03/21 10:30:08;;;;;;;3.22;2.00;;;23.30;39.90;;;;;;4999531;28;20470;-62
2022/03/21 10:32:46;;;;;;;2.83;2.00;;;23.30;39.80;;;;;;5003481;28;20046;-67
2022/03/21 10:35:26;;;;;;;2.72;2.00;;;23.30;39.90;;;;;;4995660;28;20200;-68
2022/03/21 10:37:52;;;;;;;3.60;2.08;;;23.30;39.90;;;;;;5002998;28;20026;-66
2022/03/21 10:40:20;;;;;;;2.42;1.75;;;23.40;40.00;;;;;;5001026;28;20461;-64
2022/03/21 10:42:57;;;;;;;2.75;1.80;;;23.40;40.10;;;;;;5004070;28;20092;-66
2022/03/21 10:45:25;;;;;;;2.22;1.52;;;23.30;40.10;;;;;;4997394;28;20039;-69
2022/03/21 10:47:52;;;;;;;2.00;1.50;;;23.40;40.10;;;;;;4999961;28;20053;-66
2022/03/21 10:50:48;;;;;;;3.28;1.63;;;23.40;40.30;;;;;;4996754;28;20113;-66
2022/03/21 10:53:16;;;;;;;2.95;1.85;;;23.40;40.30;;;;;;4989817;28;20446;-69
2022/03/21 10:56:07;;;;;;;2.72;1.90;;;23.40;40.20;;;;;;5001973;28;20072;-63
2022/03/21 10:58:34;;;;;;;2.30;1.70;;;23.40;40.10;;;;;;5001461;28;20048;-65
2022/03/21 11:01:17;;;;;;;3.70;2.00;;;23.40;40.10;;;;;;4995095;28;20046;-66
2022/03/21 11:03:49;;;;;;;2.85;1.60;;;23.40;40.10;;;;;;4997973;28;20026;-68
2022/03/21 11:06:16;;;;;;;3.88;1.70;;;23.50;40.60;;;;;;4993870;28;20037;-66
2022/03/21 11:08:43;;;;;;;2.60;1.88;;;23.50;40.40;;;;;;5000498;28;20076;-66
2022/03/21 11:11:10;;;;;;;4.07;2.10;;;23.50;40.20;;;;;;4995297;28;20437;-63
2022/03/21 11:13:38;;;;;;;3.60;2.10;;;23.50;40.10;;;;;;4995194;28;20526;-68
2022/03/21 11:16:05;;;;;;;3.03;2.13;;;23.50;40.00;;;;;;4997959;28;20025;-68
2022/03/21 11:18:32;;;;;;;3.88;2.35;;;23.50;39.90;;;;;;4999443;28;20030;-68
2022/03/21 11:20:58;;;;;;;3.28;1.80;;;23.50;39.80;;;;;;5017875;28;20026;-67
2022/03/21 11:23:27;;;;;;;2.78;1.80;;;23.50;39.80;;;;;;5014657;28;20183;-63
2022/03/21 11:26:16;;;;;;;4.05;2.03;;;23.50;39.70;;;;;;5004520;28;20029;-69
2022/03/21 11:28:44;;;;;;;3.63;2.50;;;23.60;39.70;;;;;;5000007;28;20652;-66
2022/03/21 11:31:42;;;;;;;6.93;3.90;;;23.50;39.60;;;;;;4997439;28;20401;-68
2022/03/21 11:34:33;;;;;;;17.60;8.32;;;23.50;39.60;;;;;;4998058;28;20434;-66
2022/03/21 11:36:59;;;;;;;21.17;11.02;;;23.50;39.60;;;;;;5001227;28;20034;-67
2022/03/21 11:39:25;;;;;;;26.42;14.13;;;23.50;39.50;;;;;;4998766;28;20031;-68
2022/03/21 11:42:02;;;;;;;28.17;15.93;;;23.50;39.50;;;;;;5011893;28;20109;-66
2022/03/21 11:44:28;;;;;;;38.47;20.65;;;23.50;39.60;;;;;;4998822;28;20057;-67
2022/03/21 11:47:20;;;;;;;45.53;24.45;;;23.50;39.40;;;;;;4999375;28;20033;-67
2022/03/21 11:49:46;;;;;;;40.08;23.33;;;23.50;39.00;;;;;;5003520;28;20049;-65
2022/03/21 11:52:12;;;;;;;39.38;21.95;;;23.50;39.00;;;;;;4999091;28;20128;-67
2022/03/21 11:54:38;;;;;;;44.63;24.75;;;23.50;39.00;;;;;;4998539;28;20434;-65
2022/03/21 11:57:28;;;;;;;41.63;24.63;;;23.60;39.10;;;;;;5002091;28;20052;-68
2022/03/21 11:59:56;;;;;;;40.80;22.10;;;23.50;39.00;;;;;;4981405;28;20070;-68
2022/03/21 12:02:22;;;;;;;36.05;20.50;;;23.60;38.90;;;;;;5003594;28;20088;-64
2022/03/21 12:04:59;;;;;;;42.38;22.52;;;23.60;39.00;;;;;;5001732;28;20330;-68
2022/03/21 12:07:25;;;;;;;43.22;23.25;;;23.60;39.00;;;;;;5004989;28;20112;-68
2022/03/21 12:09:55;;;;;;;38.90;22.42;;;23.60;39.20;;;;;;4992954;28;20668;-67
2022/03/21 12:12:23;;;;;;;40.17;21.42;;;23.60;39.10;;;;;;4996376;28;20608;-65
2022/03/21 12:14:56;;;;;;;38.60;21.30;;;23.60;39.00;;;;;;4998170;28;20109;-65
2022/03/21 12:17:22;;;;;;;34.55;19.95;;;23.60;38.70;;;;;;5009356;28;20109;-67
2022/03/21 12:19:51;;;;;;;33.88;19.50;;;23.70;38.40;;;;;;5010857;28;20604;-65
2022/03/21 12:22:35;;;;;;;31.83;18.10;;;23.70;38.20;;;;;;5000724;28;20026;-64
2022/03/21 12:25:00;;;;;;;35.28;19.48;;;23.70;38.20;;;;;;4998489;28;20539;-67
2022/03/21 12:27:48;;;;;;;35.63;20.25;;;23.70;38.30;;;;;;5000085;28;20121;-66
2022/03/21 12:30:23;;;;;;;36.80;20.63;;;23.70;38.40;;;;;;4996969;28;20038;-63
2022/03/21 12:33:12;;;;;;;36.55;19.17;;;23.70;38.40;;;;;;5000511;28;20068;-67
2022/03/21 12:35:40;;;;;;;34.63;19.17;;;23.70;38.40;;;;;;5000918;28;20048;-66
2022/03/21 12:38:22;;;;;;;29.25;17.60;;;23.80;37.80;;;;;;4999464;28;20048;-64
2022/03/21 12:40:51;;;;;;;29.13;16.92;;;23.80;37.70;;;;;;4995892;28;20029;-68
2022/03/21 12:43:22;;;;;;;34.53;18.33;;;23.80;37.60;;;;;;4994560;28;20061;-64
2022/03/21 12:45:53;;;;;;;31.13;18.23;;;23.80;37.80;;;;;;4999748;28;20061;-67
2022/03/21 12:48:19;;;;;;;38.65;21.65;;;23.80;38.20;;;;;;5001032;28;20041;-69
2022/03/21 12:50:49;;;;;;;38.92;21.67;;;23.80;38.40;;;;;;4996519;28;20513;-70
2022/03/21 12:53:18;;;;;;;37.70;20.92;;;23.80;38.40;;;;;;4999621;28;20029;-66
2022/03/21 12:55:59;;;;;;;;;;;23.80;38.50;;;;;;4995100;28;20042;-64
2022/03/21 12:58:24;;;;;;;37.08;19.95;;;23.90;38.70;;;;;;4997693;28;19913;-69
2022/03/21 13:00:50;;;;;;;32.42;18.95;;;23.90;38.70;;;;;;4993817;28;20506;-68
2022/03/21 13:03:17;;;;;;;34.85;20.45;;;23.90;38.80;;;;;;4995574;28;20026;-69
2022/03/21 13:11:27;;;;;;;37.17;21.25;;;23.90;39.00;;;;;;4999319;28;20037;-67
2022/03/21 13:13:55;;;;;;;33.75;20.05;;;23.90;39.00;;;;;;5013303;28;20036;-66